Time,TemperatureF,DewpointF,PressureIn,WindDirection,WindDirectionDegrees,WindSpeedMPH,WindSpeedGustMPH,Humidity,HourlyPrecipIn,Conditions,Clouds,dailyrainin,SoftwareType,DateUTC
2013-10-21 00:12:00,49.0,49.0,30.12,NNE,13,0.0,4.0,100,0.00,,,0.02,,2013-10-21 07:12:00,
2013-10-21 00:22:00,48.0,48.0,30.12,NNE,13,1.0,4.0,100,0.00,,,0.02,,2013-10-21 07:22:00,
2013-10-21 00:42:00,48.0,48.0,30.11,North,5,2.0,3.0,100,0.00,,,0.02,,2013-10-21 07:42:00,
2013-10-21 00:52:00,48.0,48.0,30.11,North,5,0.0,2.0,100,0.00,,,0.02,,2013-10-21 07:52:00,
2013-10-21 01:12:00,48.0,48.0,30.11,North,5,0.0,3.0,100,0.00,,,0.02,,2013-10-21 08:12:00,
2013-10-21 01:21:00,47.0,47.0,30.12,NNW,330,1.0,3.0,100,0.00,,,0.02,,2013-10-21 08:21:00,
2013-10-21 01:42:00,47.0,47.0,30.12,NNW,346,3.0,4.0,100,0.00,,,0.01,,2013-10-21 08:42:00,
2013-10-21 01:52:00,47.0,47.0,30.12,NE,51,1.0,3.0,100,0.00,,,0.01,,2013-10-21 08:52:00,
2013-10-21 02:22:00,48.0,48.0,30.11,ENE,74,0.0,3.0,100,0.00,,,0.01,,2013-10-21 09:22:00,
2013-10-21 02:43:00,48.0,48.0,30.11,ENE,74,0.0,2.0,100,0.00,,,0.01,,2013-10-21 09:43:00,
2013-10-21 02:53:00,48.0,48.0,30.11,ENE,74,0.0,1.0,100,0.00,,,0.01,,2013-10-21 09:53:00,
2013-10-21 03:12:00,48.0,48.0,30.11,ENE,74,0.0,1.0,100,0.00,,,0.01,,2013-10-21 10:12:00,
2013-10-21 03:22:00,47.0,47.0,30.11,ENE,74,0.0,1.0,100,0.00,,,0.01,,2013-10-21 10:22:00,
2013-10-21 03:42:00,47.0,47.0,30.11,ENE,74,0.0,1.0,100,0.00,,,0.01,,2013-10-21 10:42:00,
2013-10-21 03:52:00,46.0,46.0,30.11,ENE,74,0.0,1.0,100,0.00,,,0.01,,2013-10-21 10:52:00,
2013-10-21 04:12:00,46.0,46.0,30.10,ENE,74,0.0,0.0,100,0.00,,,0.01,,2013-10-21 11:12:00,
2013-10-21 04:22:00,46.0,46.0,30.10,ENE,74,0.0,0.0,100,0.00,,,0.01,,2013-10-21 11:22:00,
2013-10-21 04:42:00,45.0,45.0,30.09,ENE,74,0.0,0.0,100,0.00,,,0.01,,2013-10-21 11:42:00,
2013-10-21 04:52:00,45.0,45.0,30.09,ENE,74,0.0,0.0,100,0.00,,,0.01,,2013-10-21 11:52:00,
2013-10-21 05:12:00,44.0,44.0,30.09,ENE,74,0.0,0.0,100,0.00,,,0.01,,2013-10-21 12:12:00,
2013-10-21 05:22:00,45.0,45.0,30.09,ENE,74,0.0,0.0,100,0.00,,,0.01,,2013-10-21 12:22:00,
2013-10-21 05:42:00,44.0,44.0,30.09,ENE,74,0.0,0.0,100,0.00,,,0.01,,2013-10-21 12:42:00,
2013-10-21 05:52:00,44.0,44.0,30.09,ENE,74,0.0,1.0,100,0.00,,,0.01,,2013-10-21 12:52:00,
2013-10-21 06:11:00,44.0,44.0,30.09,ENE,74,0.0,0.0,100,0.00,,,0.01,,2013-10-21 13:11:00,
2013-10-21 06:22:00,44.0,44.0,30.09,ENE,74,0.0,0.0,100,0.00,,,0.01,,2013-10-21 13:22:00,
2013-10-21 06:42:00,44.0,44.0,30.09,ENE,74,1.0,2.0,100,0.00,,,0.01,,2013-10-21 13:42:00,
2013-10-21 06:52:00,44.0,44.0,30.09,NE,44,0.0,2.0,100,0.00,,,0.01,,2013-10-21 13:52:00,
2013-10-21 07:11:00,45.0,45.0,30.09,NE,44,1.0,1.0,100,0.00,,,0.01,,2013-10-21 14:11:00,
2013-10-21 07:21:00,45.0,45.0,30.09,ENE,78,0.0,2.0,100,0.00,,,0.01,,2013-10-21 14:21:00,
2013-10-21 07:42:00,45.0,45.0,30.09,ESE,119,2.0,3.0,100,0.00,,,0.01,,2013-10-21 14:42:00,
2013-10-21 07:52:00,45.0,45.0,30.09,ESE,114,3.0,4.0,100,0.00,,,0.01,,2013-10-21 14:52:00,
2013-10-21 08:12:00,45.0,45.0,30.09,SE,133,2.0,3.0,100,0.00,,,0.01,,2013-10-21 15:12:00,
2013-10-21 08:21:00,45.0,45.0,30.09,SE,132,2.0,3.0,100,0.00,,,0.01,,2013-10-21 15:21:00,
2013-10-21 08:43:00,45.0,45.0,30.09,SE,132,0.0,2.0,100,0.00,,,0.01,,2013-10-21 15:43:00,
2013-10-21 08:53:00,45.0,45.0,30.09,SE,132,0.0,1.0,100,0.00,,,0.01,,2013-10-21 15:53:00,
2013-10-21 09:13:00,44.0,44.0,30.09,SE,132,0.0,1.0,100,0.00,,,0.01,,2013-10-21 16:13:00,
2013-10-21 09:23:00,45.0,45.0,30.10,ENE,72,1.0,2.0,100,0.00,,,0.01,,2013-10-21 16:23:00,
2013-10-21 09:43:00,45.0,45.0,30.10,NW,308,0.0,4.0,100,0.00,,,0.01,,2013-10-21 16:43:00,
2013-10-21 09:53:00,46.0,46.0,30.10,West,270,0.0,1.0,100,0.00,,,0.01,,2013-10-21 16:53:00,
2013-10-21 10:12:00,47.0,47.0,30.10,WSW,238,1.0,2.0,100,0.00,,,0.01,,2013-10-21 17:12:00,
2013-10-21 10:21:00,48.0,48.0,30.10,SE,141,1.0,3.0,100,0.00,,,0.01,,2013-10-21 17:21:00,
2013-10-21 10:43:00,48.0,48.0,30.10,SE,146,0.0,2.0,100,0.00,,,0.01,,2013-10-21 17:43:00,
2013-10-21 10:53:00,49.0,49.0,30.10,SSW,199,1.0,2.0,100,0.00,,,0.01,,2013-10-21 17:53:00,
2013-10-21 11:12:00,48.0,48.0,30.09,West,280,2.0,4.0,100,0.00,,,0.01,,2013-10-21 18:12:00,
2013-10-21 11:21:00,48.0,48.0,30.09,West,281,2.0,4.0,100,0.00,,,0.01,,2013-10-21 18:21:00,
2013-10-21 11:42:00,50.0,50.0,30.09,WNW,286,2.0,4.0,100,0.00,,,0.01,,2013-10-21 18:42:00,
2013-10-21 11:52:00,51.0,51.0,30.09,WSW,254,1.0,4.0,100,0.00,,,0.01,,2013-10-21 18:52:00,
2013-10-21 12:11:00,53.0,53.0,30.09,SW,232,1.0,3.0,100,0.00,,,0.01,,2013-10-21 19:11:00,
2013-10-21 12:21:00,52.0,52.0,30.09,West,273,3.0,5.0,100,0.00,,,0.01,,2013-10-21 19:21:00,
2013-10-21 12:42:00,52.0,52.0,30.08,West,277,1.0,5.0,100,0.00,,,0.01,,2013-10-21 19:42:00,
2013-10-21 12:52:00,54.0,54.0,30.08,WSW,238,2.0,4.0,100,0.00,,,0.01,,2013-10-21 19:52:00,
2013-10-21 13:11:00,54.0,54.0,30.07,WNW,283,4.0,5.0,100,0.00,,,0.01,,2013-10-21 20:11:00,
2013-10-21 13:21:00,53.0,53.0,30.07,West,269,3.0,5.0,100,0.00,,,0.01,,2013-10-21 20:21:00,
2013-10-21 13:43:00,52.0,52.0,30.07,WNW,291,5.0,8.0,100,0.00,,,0.01,,2013-10-21 20:43:00,
2013-10-21 13:52:00,53.0,53.0,30.06,WNW,298,5.0,10.0,100,0.00,,,0.01,,2013-10-21 20:52:00,
2013-10-21 14:22:00,54.0,54.0,30.05,NW,304,4.0,6.0,100,0.00,,,0.01,,2013-10-21 21:22:00,
2013-10-21 14:54:00,55.0,55.0,30.04,WNW,296,7.0,10.0,100,0.00,,,0.01,,2013-10-21 21:54:00,
2013-10-21 15:23:00,54.0,54.0,30.03,WNW,302,5.0,10.0,100,0.00,,,0.01,,2013-10-21 22:23:00,
2013-10-21 15:44:00,52.0,52.0,30.03,WNW,298,6.0,12.0,100,0.00,,,0.01,,2013-10-21 22:44:00,
2013-10-21 15:53:00,52.0,52.0,30.03,NNW,333,5.0,11.0,100,0.00,,,0.01,,2013-10-21 22:53:00,
2013-10-21 16:12:00,52.0,52.0,30.03,NW,316,8.0,11.0,100,0.00,,,0.01,,2013-10-21 23:12:00,
2013-10-21 16:22:00,52.0,52.0,30.02,WNW,302,6.0,9.0,100,0.00,,,0.01,,2013-10-21 23:22:00,
2013-10-21 16:42:00,52.0,52.0,30.02,WNW,293,4.0,9.0,100,0.00,,,0.00,,2013-10-21 23:42:00,
2013-10-21 16:52:00,53.0,53.0,30.02,West,280,3.0,6.0,100,0.00,,,0.00,,2013-10-21 23:52:00,
2013-10-21 17:12:00,54.0,54.0,30.01,WNW,291,1.0,6.0,100,0.00,,,0.00,,2013-10-22 00:12:00,
2013-10-21 17:22:00,57.0,57.0,30.01,SW,234,3.0,4.0,100,0.00,,,0.00,,2013-10-22 00:22:00,
2013-10-21 17:42:00,55.0,55.0,30.00,West,279,3.0,5.0,100,0.00,,,0.00,,2013-10-22 00:42:00,
2013-10-21 17:53:00,55.0,55.0,30.00,WNW,291,1.0,2.0,100,0.00,,,0.00,,2013-10-22 00:53:00,
2013-10-21 18:12:00,56.0,56.0,30.00,WNW,291,0.0,1.0,100,0.00,,,0.00,,2013-10-22 01:12:00,
2013-10-21 18:21:00,57.0,57.0,30.00,WNW,291,0.0,2.0,100,0.00,,,0.00,,2013-10-22 01:21:00,
2013-10-21 18:42:00,57.0,57.0,30.00,South,189,1.0,2.0,100,0.00,,,0.00,,2013-10-22 01:42:00,
2013-10-21 18:52:00,57.0,57.0,30.00,ESE,113,3.0,4.0,100,0.00,,,0.00,,2013-10-22 01:52:00,
2013-10-21 19:11:00,55.0,55.0,30.01,WSW,238,1.0,3.0,100,0.00,,,0.00,,2013-10-22 02:11:00,
2013-10-21 19:22:00,54.0,54.0,30.01,SW,229,0.0,2.0,100,0.00,,,0.00,,2013-10-22 02:22:00,
2013-10-21 19:42:00,54.0,54.0,30.01,SW,229,0.0,3.0,100,0.00,,,0.00,,2013-10-22 02:42:00,
2013-10-21 19:52:00,54.0,54.0,30.01,East,85,1.0,3.0,100,0.00,,,0.00,,2013-10-22 02:52:00,
2013-10-21 20:12:00,54.0,54.0,30.01,East,85,0.0,2.0,100,0.00,,,0.00,,2013-10-22 03:12:00,
2013-10-21 20:22:00,53.0,53.0,30.01,East,85,1.0,2.0,100,0.00,,,0.00,,2013-10-22 03:22:00,
2013-10-21 20:45:00,53.0,53.0,30.01,East,85,0.0,2.0,100,0.00,,,0.00,,2013-10-22 03:45:00,
2013-10-21 20:55:00,53.0,53.0,30.01,East,85,0.0,0.0,100,0.00,,,0.00,,2013-10-22 03:55:00,
2013-10-21 21:13:00,53.0,53.0,30.01,South,174,1.0,2.0,100,0.00,,,0.00,,2013-10-22 04:13:00,
2013-10-21 21:24:00,53.0,53.0,30.01,South,174,0.0,1.0,100,0.00,,,0.00,,2013-10-22 04:24:00,
2013-10-21 21:54:00,52.0,52.0,30.01,South,171,1.0,3.0,100,0.00,,,0.00,,2013-10-22 04:54:00,
2013-10-21 22:13:00,51.0,51.0,30.03,SSE,168,1.0,6.0,100,0.00,,,0.00,,2013-10-22 05:13:00,
2013-10-21 22:22:00,51.0,51.0,30.03,SSE,167,2.0,7.0,100,0.00,,,0.00,,2013-10-22 05:22:00,
2013-10-21 22:52:00,51.0,51.0,30.04,SE,132,2.0,5.0,100,0.00,,,0.00,,2013-10-22 05:52:00,
2013-10-21 23:12:00,51.0,51.0,30.04,ESE,117,3.0,5.0,100,0.00,,,0.00,,2013-10-22 06:12:00,
2013-10-21 23:22:00,51.0,51.0,30.04,SE,137,5.0,6.0,100,0.00,,,0.00,,2013-10-22 06:22:00,
2013-10-21 23:42:00,51.0,51.0,30.05,SSE,150,3.0,5.0,100,0.00,,,0.00,,2013-10-22 06:42:00,
2013-10-21 23:53:00,51.0,51.0,30.05,SE,143,3.0,7.0,100,0.00,,,0.00,,2013-10-22 06:53:00,